sensor_id;sensor_type;location;lat;lon;timestamp;pressure;altitude;pressure_sealevel;temperature;humidity
51526;BME280;37611;51.794;21.590;2022-08-01T00:03:23;99534.00;;;15.56;100.00
51526;BME280;37611;51.794;21.590;2022-08-01T00:07:25;99535.62;;;15.54;100.00
51526;BME280;37611;51.794;21.590;2022-08-01T00:11:26;99533.24;;;15.53;100.00
51526;BME280;37611;51.794;21.590;2022-08-01T00:15:28;99532.17;;;15.52;100.00
51526;BME280;37611;51.794;21.590;2022-08-01T00:19:30;99531.86;;;15.53;100.00
51526;BME280;37611;51.794;21.590;2022-08-01T00:23:32;99530.64;;;15.53;100.00
51526;BME280;37611;51.794;21.590;2022-08-01T00:27:34;99528.50;;;15.53;100.00
51526;BME280;37611;51.794;21.590;2022-08-01T00:31:36;99529.99;;;15.55;100.00
51526;BME280;37611;51.794;21.590;2022-08-01T00:35:38;99527.47;;;15.54;100.00
51526;BME280;37611;51.794;21.590;2022-08-01T00:39:39;99532.31;;;15.52;100.00
51526;BME280;37611;51.794;21.590;2022-08-01T00:43:41;99531.20;;;15.51;100.00
51526;BME280;37611;51.794;21.590;2022-08-01T00:47:43;99531.29;;;15.52;100.00
51526;BME280;37611;51.794;21.590;2022-08-01T00:51:44;99534.09;;;15.52;100.00
51526;BME280;37611;51.794;21.590;2022-08-01T00:55:47;99528.92;;;15.51;100.00
51526;BME280;37611;51.794;21.590;2022-08-01T00:59:50;99531.96;;;15.49;100.00
51526;BME280;37611;51.794;21.590;2022-08-01T01:03:53;99529.05;;;15.46;100.00
51526;BME280;37611;51.794;21.590;2022-08-01T01:08:07;99533.59;;;15.48;100.00
51526;BME280;37611;51.794;21.590;2022-08-01T01:16:18;99543.27;;;15.48;100.00
51526;BME280;37611;51.794;21.590;2022-08-01T01:20:24;99542.39;;;15.49;100.00
51526;BME280;37611;51.794;21.590;2022-08-01T01:32:59;99545.20;;;15.59;100.00
51526;BME280;37611;51.794;21.590;2022-08-01T01:37:06;99546.84;;;15.57;100.00
51526;BME280;37611;51.794;21.590;2022-08-01T01:41:14;99543.45;;;15.57;100.00
51526;BME280;37611;51.794;21.590;2022-08-01T01:45:18;99546.96;;;15.57;100.00
51526;BME280;37611;51.794;21.590;2022-08-01T01:49:25;99548.06;;;15.60;100.00
51526;BME280;37611;51.794;21.590;2022-08-01T01:53:29;99547.00;;;15.58;100.00
51526;BME280;37611;51.794;21.590;2022-08-01T01:57:37;99549.31;;;15.59;100.00
51526;BME280;37611;51.794;21.590;2022-08-01T02:01:40;99551.88;;;15.60;100.00
51526;BME280;37611;51.794;21.590;2022-08-01T02:05:42;99556.05;;;15.61;100.00
51526;BME280;37611;51.794;21.590;2022-08-01T02:09:46;99553.77;;;15.59;100.00
51526;BME280;37611;51.794;21.590;2022-08-01T02:14:00;99551.52;;;15.59;100.00
51526;BME280;37611;51.794;21.590;2022-08-01T02:18:03;99547.27;;;15.55;100.00
51526;BME280;37611;51.794;21.590;2022-08-01T02:22:09;99548.35;;;15.51;100.00
51526;BME280;37611;51.794;21.590;2022-08-01T02:26:14;99548.88;;;15.51;100.00
51526;BME280;37611;51.794;21.590;2022-08-01T02:30:19;99548.83;;;15.51;100.00
51526;BME280;37611;51.794;21.590;2022-08-01T02:34:22;99546.33;;;15.47;100.00
51526;BME280;37611;51.794;21.590;2022-08-01T02:38:28;99550.38;;;15.43;100.00
51526;BME280;37611;51.794;21.590;2022-08-01T02:42:34;99555.05;;;15.42;100.00
51526;BME280;37611;51.794;21.590;2022-08-01T02:46:51;99558.14;;;15.41;100.00
51526;BME280;37611;51.794;21.590;2022-08-01T02:50:57;99559.91;;;15.42;100.00
51526;BME280;37611;51.794;21.590;2022-08-01T02:55:00;99562.12;;;15.45;100.00
51526;BME280;37611;51.794;21.590;2022-08-01T02:59:07;99567.77;;;15.49;100.00
51526;BME280;37611;51.794;21.590;2022-08-01T03:03:11;99570.59;;;15.47;100.00
51526;BME280;37611;51.794;21.590;2022-08-01T03:07:14;99572.85;;;15.42;100.00
51526;BME280;37611;51.794;21.590;2022-08-01T03:11:17;99568.92;;;15.39;100.00
51526;BME280;37611;51.794;21.590;2022-08-01T03:15:22;99569.20;;;15.36;100.00
51526;BME280;37611;51.794;21.590;2022-08-01T03:19:27;99570.30;;;15.37;100.00
51526;BME280;37611;51.794;21.590;2022-08-01T03:23:32;99573.33;;;15.36;100.00
51526;BME280;37611;51.794;21.590;2022-08-01T03:27:36;99565.79;;;15.33;100.00
51526;BME280;37611;51.794;21.590;2022-08-01T03:31:39;99568.12;;;15.35;100.00
51526;BME280;37611;51.794;21.590;2022-08-01T03:35:49;99569.95;;;15.36;100.00
51526;BME280;37611;51.794;21.590;2022-08-01T03:40:11;99574.60;;;15.35;100.00
51526;BME280;37611;51.794;21.590;2022-08-01T03:44:17;99578.50;;;15.35;100.00
51526;BME280;37611;51.794;21.590;2022-08-01T03:48:28;99583.02;;;15.35;100.00
51526;BME280;37611;51.794;21.590;2022-08-01T03:52:32;99586.02;;;15.35;100.00
51526;BME280;37611;51.794;21.590;2022-08-01T03:56:36;99587.58;;;15.35;100.00
51526;BME280;37611;51.794;21.590;2022-08-01T04:00:39;99583.73;;;15.39;100.00
51526;BME280;37611;51.794;21.590;2022-08-01T04:04:42;99589.63;;;15.38;100.00
51526;BME280;37611;51.794;21.590;2022-08-01T04:08:44;99598.77;;;15.38;100.00
51526;BME280;37611;51.794;21.590;2022-08-01T04:12:56;99604.45;;;15.37;100.00
51526;BME280;37611;51.794;21.590;2022-08-01T04:16:58;99603.86;;;15.40;100.00
51526;BME280;37611;51.794;21.590;2022-08-01T04:21:00;99602.98;;;15.38;100.00
51526;BME280;37611;51.794;21.590;2022-08-01T04:25:04;99609.75;;;15.38;100.00
51526;BME280;37611;51.794;21.590;2022-08-01T04:29:10;99614.49;;;15.41;100.00
51526;BME280;37611;51.794;21.590;2022-08-01T04:33:14;99617.27;;;15.43;100.00
51526;BME280;37611;51.794;21.590;2022-08-01T04:37:18;99622.57;;;15.43;100.00
51526;BME280;37611;51.794;21.590;2022-08-01T04:41:22;99621.65;;;15.41;100.00
51526;BME280;37611;51.794;21.590;2022-08-01T04:45:24;99625.15;;;15.45;100.00
51526;BME280;37611;51.794;21.590;2022-08-01T04:49:26;99625.77;;;15.47;100.00
51526;BME280;37611;51.794;21.590;2022-08-01T04:53:28;99620.99;;;15.50;100.00
51526;BME280;37611;51.794;21.590;2022-08-01T04:57:39;99625.33;;;15.53;100.00
51526;BME280;37611;51.794;21.590;2022-08-01T05:01:42;99631.97;;;15.61;100.00
51526;BME280;37611;51.794;21.590;2022-08-01T05:05:44;99631.23;;;15.66;100.00
51526;BME280;37611;51.794;21.590;2022-08-01T05:09:47;99636.39;;;15.71;100.00
51526;BME280;37611;51.794;21.590;2022-08-01T05:13:48;99638.91;;;15.70;100.00
51526;BME280;37611;51.794;21.590;2022-08-01T05:17:50;99638.48;;;15.75;100.00
51526;BME280;37611;51.794;21.590;2022-08-01T05:21:52;99642.08;;;15.74;100.00
51526;BME280;37611;51.794;21.590;2022-08-01T05:25:54;99640.91;;;15.77;100.00
51526;BME280;37611;51.794;21.590;2022-08-01T05:29:56;99638.38;;;15.81;100.00
51526;BME280;37611;51.794;21.590;2022-08-01T05:33:57;99639.69;;;15.84;100.00
51526;BME280;37611;51.794;21.590;2022-08-01T05:37:59;99641.54;;;15.87;100.00
51526;BME280;37611;51.794;21.590;2022-08-01T05:42:01;99644.02;;;15.94;100.00
51526;BME280;37611;51.794;21.590;2022-08-01T05:46:03;99649.17;;;15.98;100.00
51526;BME280;37611;51.794;21.590;2022-08-01T05:50:04;99653.17;;;16.04;100.00
51526;BME280;37611;51.794;21.590;2022-08-01T05:54:06;99658.06;;;16.06;100.00
51526;BME280;37611;51.794;21.590;2022-08-01T05:58:08;99653.77;;;16.02;100.00
51526;BME280;37611;51.794;21.590;2022-08-01T06:02:10;99654.48;;;16.03;100.00
51526;BME280;37611;51.794;21.590;2022-08-01T06:06:12;99656.63;;;16.11;100.00
51526;BME280;37611;51.794;21.590;2022-08-01T06:10:15;99658.59;;;16.21;100.00
51526;BME280;37611;51.794;21.590;2022-08-01T06:14:17;99658.27;;;16.31;100.00
51526;BME280;37611;51.794;21.590;2022-08-01T06:18:19;99659.10;;;16.48;100.00
51526;BME280;37611;51.794;21.590;2022-08-01T06:22:21;99655.45;;;16.56;100.00
51526;BME280;37611;51.794;21.590;2022-08-01T06:26:23;99663.27;;;16.66;100.00
51526;BME280;37611;51.794;21.590;2022-08-01T06:30:25;99669.02;;;16.72;100.00
51526;BME280;37611;51.794;21.590;2022-08-01T06:34:27;99672.08;;;16.77;100.00
51526;BME280;37611;51.794;21.590;2022-08-01T06:38:29;99674.72;;;16.93;100.00
51526;BME280;37611;51.794;21.590;2022-08-01T06:42:31;99679.53;;;17.06;100.00
51526;BME280;37611;51.794;21.590;2022-08-01T06:46:37;99682.27;;;17.23;100.00
51526;BME280;37611;51.794;21.590;2022-08-01T06:50:39;99684.66;;;17.39;100.00
51526;BME280;37611;51.794;21.590;2022-08-01T06:54:41;99686.24;;;17.49;100.00
51526;BME280;37611;51.794;21.590;2022-08-01T06:58:42;99685.35;;;17.73;100.00
51526;BME280;37611;51.794;21.590;2022-08-01T07:02:45;99684.90;;;18.15;100.00
51526;BME280;37611;51.794;21.590;2022-08-01T07:06:47;99678.11;;;18.70;100.00
51526;BME280;37611;51.794;21.590;2022-08-01T07:10:49;99677.65;;;19.14;99.47
51526;BME280;37611;51.794;21.590;2022-08-01T07:14:50;99678.02;;;19.38;97.21
51526;BME280;37611;51.794;21.590;2022-08-01T07:18:52;99679.67;;;19.60;96.08
51526;BME280;37611;51.794;21.590;2022-08-01T07:22:54;99684.75;;;19.62;93.89
51526;BME280;37611;51.794;21.590;2022-08-01T07:26:55;99680.52;;;19.86;93.46
51526;BME280;37611;51.794;21.590;2022-08-01T07:30:59;99678.17;;;20.20;92.60
51526;BME280;37611;51.794;21.590;2022-08-01T07:35:01;99678.77;;;20.36;91.94
51526;BME280;37611;51.794;21.590;2022-08-01T07:39:05;99682.49;;;20.30;90.07
51526;BME280;37611;51.794;21.590;2022-08-01T07:43:07;99680.11;;;20.23;91.08
51526;BME280;37611;51.794;21.590;2022-08-01T07:47:08;99680.62;;;20.32;90.01
51526;BME280;37611;51.794;21.590;2022-08-01T07:51:10;99681.14;;;20.34;89.79
51526;BME280;37611;51.794;21.590;2022-08-01T07:55:13;99682.52;;;20.46;90.16
51526;BME280;37611;51.794;21.590;2022-08-01T07:59:14;99681.50;;;20.63;88.98
51526;BME280;37611;51.794;21.590;2022-08-01T08:03:16;99678.73;;;20.78;88.86
51526;BME280;37611;51.794;21.590;2022-08-01T08:07:18;99678.74;;;21.04;88.98
51526;BME280;37611;51.794;21.590;2022-08-01T08:11:20;99678.67;;;21.32;87.82
51526;BME280;37611;51.794;21.590;2022-08-01T08:15:22;99678.70;;;21.58;86.83
51526;BME280;37611;51.794;21.590;2022-08-01T08:19:24;99683.45;;;21.62;83.16
51526;BME280;37611;51.794;21.590;2022-08-01T08:23:26;99681.70;;;21.61;81.82
51526;BME280;37611;51.794;21.590;2022-08-01T08:27:46;99684.75;;;21.63;81.95
51526;BME280;37611;51.794;21.590;2022-08-01T08:31:49;99686.42;;;21.71;81.48
51526;BME280;37611;51.794;21.590;2022-08-01T08:35:52;99687.75;;;21.79;80.28
51526;BME280;37611;51.794;21.590;2022-08-01T08:39:55;99688.68;;;21.85;78.93
51526;BME280;37611;51.794;21.590;2022-08-01T08:43:57;99697.83;;;22.00;78.50
51526;BME280;37611;51.794;21.590;2022-08-01T08:48:02;99698.22;;;22.13;76.74
51526;BME280;37611;51.794;21.590;2022-08-01T08:52:05;99696.57;;;21.94;75.70
51526;BME280;37611;51.794;21.590;2022-08-01T08:56:08;99692.70;;;22.00;76.10
51526;BME280;37611;51.794;21.590;2022-08-01T09:00:10;99696.05;;;22.18;74.42
51526;BME280;37611;51.794;21.590;2022-08-01T09:04:13;99697.60;;;22.34;73.39
51526;BME280;37611;51.794;21.590;2022-08-01T09:08:15;99699.31;;;22.47;73.37
51526;BME280;37611;51.794;21.590;2022-08-01T09:12:18;99703.86;;;22.63;73.73
51526;BME280;37611;51.794;21.590;2022-08-01T09:16:20;99705.10;;;22.80;72.49
51526;BME280;37611;51.794;21.590;2022-08-01T09:20:24;99710.80;;;22.89;71.95
51526;BME280;37611;51.794;21.590;2022-08-01T09:24:28;99713.96;;;22.90;69.72
51526;BME280;37611;51.794;21.590;2022-08-01T09:28:31;99714.44;;;22.94;71.38
51526;BME280;37611;51.794;21.590;2022-08-01T09:32:32;99718.99;;;22.90;69.71
51526;BME280;37611;51.794;21.590;2022-08-01T09:36:54;99722.50;;;22.85;69.14
51526;BME280;37611;51.794;21.590;2022-08-01T09:40:59;99729.38;;;22.94;68.38
51526;BME280;37611;51.794;21.590;2022-08-01T09:45:01;99726.28;;;23.00;68.15
51526;BME280;37611;51.794;21.590;2022-08-01T09:49:05;99720.13;;;23.06;68.93
51526;BME280;37611;51.794;21.590;2022-08-01T09:53:08;99724.61;;;23.18;67.57
51526;BME280;37611;51.794;21.590;2022-08-01T09:57:15;99728.71;;;23.26;67.87
51526;BME280;37611;51.794;21.590;2022-08-01T10:01:22;99729.55;;;23.25;67.33
51526;BME280;37611;51.794;21.590;2022-08-01T10:05:32;99722.17;;;23.23;66.68
51526;BME280;37611;51.794;21.590;2022-08-01T10:09:36;99716.95;;;23.24;65.93
51526;BME280;37611;51.794;21.590;2022-08-01T10:13:39;99720.31;;;23.39;67.30
51526;BME280;37611;51.794;21.590;2022-08-01T10:17:49;99720.05;;;23.46;66.12
51526;BME280;37611;51.794;21.590;2022-08-01T10:21:56;99717.68;;;23.53;66.05
51526;BME280;37611;51.794;21.590;2022-08-01T10:26:00;99720.28;;;23.70;67.39
51526;BME280;37611;51.794;21.590;2022-08-01T10:30:04;99720.45;;;23.77;65.55
51526;BME280;37611;51.794;21.590;2022-08-01T10:34:06;99721.48;;;23.78;64.46
51526;BME280;37611;51.794;21.590;2022-08-01T10:38:08;99716.55;;;23.79;63.72
51526;BME280;37611;51.794;21.590;2022-08-01T10:42:11;99715.80;;;23.82;64.90
51526;BME280;37611;51.794;21.590;2022-08-01T10:46:13;99712.61;;;23.88;64.60
51526;BME280;37611;51.794;21.590;2022-08-01T10:50:23;99715.44;;;23.95;63.87
51526;BME280;37611;51.794;21.590;2022-08-01T10:54:26;99711.16;;;23.96;63.82
51526;BME280;37611;51.794;21.590;2022-08-01T10:58:37;99713.48;;;24.04;62.54
51526;BME280;37611;51.794;21.590;2022-08-01T11:02:39;99711.03;;;24.05;63.11
51526;BME280;37611;51.794;21.590;2022-08-01T11:06:54;99709.88;;;24.06;61.78
51526;BME280;37611;51.794;21.590;2022-08-01T11:11:05;99707.20;;;24.08;61.27
51526;BME280;37611;51.794;21.590;2022-08-01T11:19:11;99712.30;;;24.19;60.35
51526;BME280;37611;51.794;21.590;2022-08-01T11:23:16;99712.66;;;24.23;61.22
51526;BME280;37611;51.794;21.590;2022-08-01T11:27:24;99704.04;;;24.24;61.28
51526;BME280;37611;51.794;21.590;2022-08-01T11:31:26;99711.61;;;24.29;61.88
51526;BME280;37611;51.794;21.590;2022-08-01T11:35:29;99711.15;;;24.35;61.06
51526;BME280;37611;51.794;21.590;2022-08-01T11:39:31;99710.52;;;24.38;59.86
51526;BME280;37611;51.794;21.590;2022-08-01T11:43:32;99713.27;;;24.48;59.89
51526;BME280;37611;51.794;21.590;2022-08-01T11:47:48;99708.85;;;24.55;58.41
51526;BME280;37611;51.794;21.590;2022-08-01T11:52:24;99706.98;;;24.61;59.25
51526;BME280;37611;51.794;21.590;2022-08-01T11:56:26;99706.50;;;24.62;59.39
51526;BME280;37611;51.794;21.590;2022-08-01T12:00:28;99710.77;;;24.63;59.87
51526;BME280;37611;51.794;21.590;2022-08-01T12:04:48;99709.07;;;24.65;58.09
51526;BME280;37611;51.794;21.590;2022-08-01T12:08:50;99708.44;;;24.53;59.64
51526;BME280;37611;51.794;21.590;2022-08-01T12:12:59;99705.92;;;24.52;59.73
51526;BME280;37611;51.794;21.590;2022-08-01T12:17:02;99701.13;;;24.47;57.93
51526;BME280;37611;51.794;21.590;2022-08-01T12:21:04;99704.30;;;24.52;57.86
51526;BME280;37611;51.794;21.590;2022-08-01T12:25:11;99703.96;;;24.57;57.48
51526;BME280;37611;51.794;21.590;2022-08-01T12:29:34;99703.00;;;24.66;56.57
51526;BME280;37611;51.794;21.590;2022-08-01T12:33:36;99702.16;;;24.77;58.00
51526;BME280;37611;51.794;21.590;2022-08-01T12:37:43;99698.86;;;24.85;57.91
51526;BME280;37611;51.794;21.590;2022-08-01T12:41:45;99693.77;;;24.93;57.08
51526;BME280;37611;51.794;21.590;2022-08-01T12:45:49;99690.60;;;24.98;56.78
51526;BME280;37611;51.794;21.590;2022-08-01T12:49:51;99688.16;;;24.95;54.48
51526;BME280;37611;51.794;21.590;2022-08-01T12:53:54;99689.25;;;24.91;53.62
51526;BME280;37611;51.794;21.590;2022-08-01T12:58:10;99682.45;;;24.89;53.99
51526;BME280;37611;51.794;21.590;2022-08-01T13:02:12;99679.77;;;24.96;53.39
51526;BME280;37611;51.794;21.590;2022-08-01T13:06:15;99679.83;;;24.95;53.79
51526;BME280;37611;51.794;21.590;2022-08-01T13:10:28;99677.36;;;24.90;54.82
51526;BME280;37611;51.794;21.590;2022-08-01T13:14:30;99677.29;;;24.93;55.98
51526;BME280;37611;51.794;21.590;2022-08-01T13:18:33;99680.27;;;25.01;56.22
51526;BME280;37611;51.794;21.590;2022-08-01T13:22:36;99673.80;;;25.01;55.03
51526;BME280;37611;51.794;21.590;2022-08-01T13:26:56;99679.60;;;24.95;55.57
51526;BME280;37611;51.794;21.590;2022-08-01T13:31:04;99680.14;;;24.94;55.08
51526;BME280;37611;51.794;21.590;2022-08-01T13:35:08;99678.31;;;24.94;55.75
51526;BME280;37611;51.794;21.590;2022-08-01T13:39:10;99680.16;;;25.02;56.70
51526;BME280;37611;51.794;21.590;2022-08-01T13:43:31;99683.46;;;25.05;56.90
51526;BME280;37611;51.794;21.590;2022-08-01T13:47:32;99685.88;;;25.00;57.16
51526;BME280;37611;51.794;21.590;2022-08-01T13:51:35;99688.20;;;24.89;58.07
51526;BME280;37611;51.794;21.590;2022-08-01T13:55:37;99686.98;;;24.80;58.26
51526;BME280;37611;51.794;21.590;2022-08-01T13:59:39;99688.50;;;24.81;58.32
51526;BME280;37611;51.794;21.590;2022-08-01T14:03:41;99692.34;;;24.89;57.80
51526;BME280;37611;51.794;21.590;2022-08-01T14:07:42;99693.24;;;24.93;57.91
51526;BME280;37611;51.794;21.590;2022-08-01T14:11:45;99698.12;;;24.98;57.43
51526;BME280;37611;51.794;21.590;2022-08-01T14:15:47;99700.23;;;25.00;58.51
51526;BME280;37611;51.794;21.590;2022-08-01T14:19:49;99696.14;;;24.99;57.49
51526;BME280;37611;51.794;21.590;2022-08-01T14:23:51;99704.30;;;24.87;58.29
51526;BME280;37611;51.794;21.590;2022-08-01T14:27:53;99708.34;;;24.73;58.78
51526;BME280;37611;51.794;21.590;2022-08-01T14:31:55;99713.41;;;24.60;58.81
51526;BME280;37611;51.794;21.590;2022-08-01T14:35:56;99710.52;;;24.51;59.63
51526;BME280;37611;51.794;21.590;2022-08-01T14:39:59;99711.52;;;24.45;59.83
51526;BME280;37611;51.794;21.590;2022-08-01T14:44:02;99716.98;;;24.44;60.32
51526;BME280;37611;51.794;21.590;2022-08-01T14:48:05;99719.88;;;24.39;59.86
51526;BME280;37611;51.794;21.590;2022-08-01T14:52:07;99709.02;;;24.35;59.68
51526;BME280;37611;51.794;21.590;2022-08-01T14:56:08;99713.36;;;24.38;59.36
51526;BME280;37611;51.794;21.590;2022-08-01T15:00:11;99712.98;;;24.39;59.37
51526;BME280;37611;51.794;21.590;2022-08-01T15:04:16;99711.07;;;24.39;59.58
51526;BME280;37611;51.794;21.590;2022-08-01T15:08:18;99713.88;;;24.39;60.25
51526;BME280;37611;51.794;21.590;2022-08-01T15:12:20;99714.45;;;24.39;60.10
51526;BME280;37611;51.794;21.590;2022-08-01T15:16:22;99718.84;;;24.39;61.02
51526;BME280;37611;51.794;21.590;2022-08-01T15:20:23;99722.27;;;24.34;61.09
51526;BME280;37611;51.794;21.590;2022-08-01T15:24:26;99721.30;;;24.30;61.38
51526;BME280;37611;51.794;21.590;2022-08-01T15:28:28;99723.34;;;24.26;61.18
51526;BME280;37611;51.794;21.590;2022-08-01T15:32:30;99723.55;;;24.22;61.10
51526;BME280;37611;51.794;21.590;2022-08-01T15:36:31;99725.05;;;24.18;61.48
51526;BME280;37611;51.794;21.590;2022-08-01T15:40:33;99721.73;;;24.14;61.49
51526;BME280;37611;51.794;21.590;2022-08-01T15:44:35;99725.17;;;24.12;61.72
51526;BME280;37611;51.794;21.590;2022-08-01T15:48:37;99720.73;;;24.11;62.04
51526;BME280;37611;51.794;21.590;2022-08-01T15:52:39;99719.60;;;24.07;62.23
51526;BME280;37611;51.794;21.590;2022-08-01T15:56:41;99720.61;;;24.04;61.98
51526;BME280;37611;51.794;21.590;2022-08-01T16:00:43;99718.17;;;23.97;61.44
51526;BME280;37611;51.794;21.590;2022-08-01T16:04:44;99718.81;;;23.93;61.70
51526;BME280;37611;51.794;21.590;2022-08-01T16:08:46;99717.83;;;23.88;62.02
51526;BME280;37611;51.794;21.590;2022-08-01T16:12:48;99721.29;;;23.86;62.11
51526;BME280;37611;51.794;21.590;2022-08-01T16:16:50;99723.52;;;23.82;62.34
51526;BME280;37611;51.794;21.590;2022-08-01T16:20:52;99724.98;;;23.76;62.30
51526;BME280;37611;51.794;21.590;2022-08-01T16:24:53;99721.51;;;23.72;62.94
51526;BME280;37611;51.794;21.590;2022-08-01T16:28:55;99725.03;;;23.68;63.97
51526;BME280;37611;51.794;21.590;2022-08-01T16:32:58;99722.22;;;23.64;64.12
51526;BME280;37611;51.794;21.590;2022-08-01T16:37:00;99725.25;;;23.60;64.38
51526;BME280;37611;51.794;21.590;2022-08-01T16:41:02;99725.16;;;23.54;64.83
51526;BME280;37611;51.794;21.590;2022-08-01T16:45:04;99730.45;;;23.46;64.41
51526;BME280;37611;51.794;21.590;2022-08-01T16:49:06;99733.59;;;23.39;64.74
51526;BME280;37611;51.794;21.590;2022-08-01T16:53:08;99733.55;;;23.33;65.14
51526;BME280;37611;51.794;21.590;2022-08-01T16:57:09;99733.45;;;23.24;65.26
51526;BME280;37611;51.794;21.590;2022-08-01T17:01:11;99735.30;;;23.13;65.99
51526;BME280;37611;51.794;21.590;2022-08-01T17:05:13;99733.61;;;23.00;66.45
51526;BME280;37611;51.794;21.590;2022-08-01T17:09:15;99734.95;;;22.89;66.48
51526;BME280;37611;51.794;21.590;2022-08-01T17:13:17;99736.89;;;22.77;67.11
51526;BME280;37611;51.794;21.590;2022-08-01T17:17:21;99738.33;;;22.65;67.85
51526;BME280;37611;51.794;21.590;2022-08-01T17:21:22;99741.19;;;22.50;68.58
51526;BME280;37611;51.794;21.590;2022-08-01T17:25:24;99745.61;;;22.36;69.35
51526;BME280;37611;51.794;21.590;2022-08-01T17:29:26;99752.05;;;22.27;69.65
51526;BME280;37611;51.794;21.590;2022-08-01T17:33:28;99749.10;;;22.15;70.75
51526;BME280;37611;51.794;21.590;2022-08-01T17:37:29;99750.62;;;22.05;71.31
51526;BME280;37611;51.794;21.590;2022-08-01T17:41:31;99751.39;;;21.98;72.34
51526;BME280;37611;51.794;21.590;2022-08-01T17:45:33;99748.91;;;21.91;73.46
51526;BME280;37611;51.794;21.590;2022-08-01T17:49:34;99752.48;;;21.85;73.52
51526;BME280;37611;51.794;21.590;2022-08-01T17:53:37;99752.05;;;21.76;73.98
51526;BME280;37611;51.794;21.590;2022-08-01T17:57:39;99757.17;;;21.67;74.64
51526;BME280;37611;51.794;21.590;2022-08-01T18:01:41;99753.88;;;21.55;75.41
51526;BME280;37611;51.794;21.590;2022-08-01T18:05:42;99760.21;;;21.35;75.98
51526;BME280;37611;51.794;21.590;2022-08-01T18:09:44;99757.38;;;21.23;76.21
51526;BME280;37611;51.794;21.590;2022-08-01T18:13:46;99759.83;;;21.18;76.97
51526;BME280;37611;51.794;21.590;2022-08-01T18:17:48;99768.44;;;21.17;77.48
51526;BME280;37611;51.794;21.590;2022-08-01T18:21:50;99773.85;;;21.03;78.06
51526;BME280;37611;51.794;21.590;2022-08-01T18:25:51;99772.54;;;20.89;78.26
51526;BME280;37611;51.794;21.590;2022-08-01T18:29:54;99775.65;;;20.77;78.82
51526;BME280;37611;51.794;21.590;2022-08-01T18:33:56;99781.91;;;20.68;79.70
51526;BME280;37611;51.794;21.590;2022-08-01T18:37:58;99783.52;;;20.61;80.49
51526;BME280;37611;51.794;21.590;2022-08-01T18:42:01;99788.95;;;20.55;80.57
51526;BME280;37611;51.794;21.590;2022-08-01T18:46:02;99794.23;;;20.50;80.56
51526;BME280;37611;51.794;21.590;2022-08-01T18:50:07;99799.36;;;20.50;80.66
51526;BME280;37611;51.794;21.590;2022-08-01T18:54:09;99801.91;;;20.50;81.13
51526;BME280;37611;51.794;21.590;2022-08-01T18:58:10;99810.70;;;20.48;81.36
51526;BME280;37611;51.794;21.590;2022-08-01T19:02:12;99813.11;;;20.30;81.75
51526;BME280;37611;51.794;21.590;2022-08-01T19:06:14;99820.90;;;20.05;81.91
51526;BME280;37611;51.794;21.590;2022-08-01T19:10:16;99819.20;;;20.02;82.54
51526;BME280;37611;51.794;21.590;2022-08-01T19:14:17;99819.09;;;20.05;83.32
51526;BME280;37611;51.794;21.590;2022-08-01T19:18:19;99821.99;;;20.11;83.91
51526;BME280;37611;51.794;21.590;2022-08-01T19:22:21;99825.77;;;20.12;84.26
51526;BME280;37611;51.794;21.590;2022-08-01T19:26:24;99827.63;;;20.05;84.22
51526;BME280;37611;51.794;21.590;2022-08-01T19:30:28;99823.84;;;19.96;84.88
51526;BME280;37611;51.794;21.590;2022-08-01T19:34:35;99829.23;;;19.88;85.07
51526;BME280;37611;51.794;21.590;2022-08-01T19:38:37;99831.92;;;19.80;85.75
51526;BME280;37611;51.794;21.590;2022-08-01T19:42:40;99836.63;;;19.76;86.52
51526;BME280;37611;51.794;21.590;2022-08-01T19:46:43;99841.89;;;19.75;86.88
51526;BME280;37611;51.794;21.590;2022-08-01T19:50:46;99837.73;;;19.72;87.17
51526;BME280;37611;51.794;21.590;2022-08-01T19:54:49;99832.72;;;19.72;87.20
51526;BME280;37611;51.794;21.590;2022-08-01T19:58:54;99832.33;;;19.76;87.38
51526;BME280;37611;51.794;21.590;2022-08-01T20:02:58;99834.64;;;19.78;87.43
51526;BME280;37611;51.794;21.590;2022-08-01T20:07:00;99834.42;;;19.75;87.78
51526;BME280;37611;51.794;21.590;2022-08-01T20:11:05;99839.65;;;19.83;88.25
51526;BME280;37611;51.794;21.590;2022-08-01T20:15:12;99842.52;;;19.89;88.32
51526;BME280;37611;51.794;21.590;2022-08-01T20:19:15;99833.77;;;19.92;87.78
51526;BME280;37611;51.794;21.590;2022-08-01T20:23:20;99834.65;;;19.89;87.97
51526;BME280;37611;51.794;21.590;2022-08-01T20:27:24;99834.95;;;19.83;88.12
51526;BME280;37611;51.794;21.590;2022-08-01T20:31:27;99833.03;;;19.79;88.42
51526;BME280;37611;51.794;21.590;2022-08-01T20:35:31;99830.92;;;19.76;88.64
51526;BME280;37611;51.794;21.590;2022-08-01T20:39:35;99835.38;;;19.75;89.14
51526;BME280;37611;51.794;21.590;2022-08-01T20:43:40;99837.88;;;19.74;89.31
51526;BME280;37611;51.794;21.590;2022-08-01T20:47:42;99839.34;;;19.75;89.69
51526;BME280;37611;51.794;21.590;2022-08-01T20:51:43;99838.46;;;19.76;89.56
51526;BME280;37611;51.794;21.590;2022-08-01T20:55:59;99836.16;;;19.79;89.94
51526;BME280;37611;51.794;21.590;2022-08-01T21:00:04;99836.81;;;19.78;89.47
51526;BME280;37611;51.794;21.590;2022-08-01T21:08:21;99830.71;;;19.66;90.06
51526;BME280;37611;51.794;21.590;2022-08-01T21:12:26;99832.87;;;19.62;90.38
51526;BME280;37611;51.794;21.590;2022-08-01T21:16:30;99836.67;;;19.57;90.77
51526;BME280;37611;51.794;21.590;2022-08-01T21:20:41;99838.16;;;19.49;90.75
51526;BME280;37611;51.794;21.590;2022-08-01T21:24:54;99837.84;;;19.40;90.87
51526;BME280;37611;51.794;21.590;2022-08-01T21:29:05;99837.34;;;19.35;91.37
51526;BME280;37611;51.794;21.590;2022-08-01T21:33:10;99841.77;;;19.35;91.68